Edwards Air Force Base
KEDW : now visible

Airfield :











YOU CAN JOIN US ON...

 
LOGIN :

Register | Disclaimer

   EN    FR    IT 

 









Legend :    VFR   Marginal VFR   IFR   Intensive IFR   Very Intensive IFR
Visi :
Ceiling :
>= 8 km
>= 3000ft
5 to 8 km
1000 to 3000 ft
1500m to 5 km
500 to 1000 ft
800 to 1500m
200 to 500 ft
< 800m
< 200 ft
Symbols :   Thunderstorms  Fog  Heavy snow  Heavy precipitations  Wind > 20 kt






- Airport Elevation : 2312 ft


KEDW - Edwards Air Force Base

CURRENT METAR :
  • 071558Z 24011KT 70SM FEW300 22/02 A2994 RMK AO2A SLP120 T02170024

EXPIRED METARs :
  • 071458Z 22012KT 70SM FEW300 19/03 A2994 RMK AO2A SLP120 T01870025 53007
  • 071358Z 21008KT 70SM FEW300 16/02 A2994 RMK AO2A SLP120 T01580022

TAF TAF KEDW
Valid from the 07 at 13:00 until the 08 at 19:00 UTC


071300Z 0713/0819 21012KT 9999 BKN300 QNH2994INS
BECMG 0716/0717 25012KT 9999 BKN300 QNH2993INS
BECMG 0717/0718 26015G25KT 9999 BKN300 520009 520909 QNH2990INS
BECMG 0720/0721 27025G35KT 9999 SCT300 530009 530909 QNH2989INS
BECMG 0802/0803 26015G25KT 9999 SKC 520009 520909 QNH2988INS
BECMG 0806/0807 25012G18KT 9999 SKC QNH2987INS TX30/0722Z TN14/0713Z
KZLA FIR / North America



MET'MAP, your aeronautical weather chart ! - Copyright ORBIFLY December 2007 - Disclaimer

ORBIFLY MET'MAP TEAM :

Programming & Development : Alexandra Zaïnal
Concept & original design : Baudouin d'Aumeries
Assistance for programming : Marc-Olivier Méhu
Technical & hardware support : Manuel Goepfert

Contact : metmap@orbifly.com




SOURCES & CREDITS :

   NOAA       Earth
Advisory